aviador You're here:

KMHT Decoded Metar

MANCHESTER in NH, USA
Report Time2017-07-23 05:53:00
UTC Time2017-07-23 06:53:42
Flight Rules vfr VFR
Wind360° at 04 kt
W.Decomp.*RWY 35: 3.6 kt HW 1.8 kt RCW
RWY 06: 2.9 kt HW 2.8 kt LCW
Visibility9999 m
Phenomena:N/A
Clouds:Overcast 180 Hf
Expected CloudBase > 2,400 ft AGL from Temp-Dew spread
Ceiling18,000 ft
Temp23°C (ISA +9)
Dew Point17°C (69% RH)
QNH1008 hPa
Density Alt1,683 ft
Elevation266 ft
Report Wrong Elevation
Raw Report
METAR KMHT 230553Z 36004KT 10SM OVC180 23/17 A2978 RMK AO2 SLP091 T02330172
10261 20228 53002=

Extra information for KMHT:More info

Metar Taf Metar & Taf Last 4 Metars F.Rules Stats Wind Profile Meteogram Temp Stats Airport Information Weather charts Add Link Nearby VenuesMetar ALERT Operation Metar Decoded Social comments

AIRNAV info for KMHT